Time;durP1;ratioP1;P1;durP2;ratioP2;P2;SDS_P1;SDS_P2;PMS_P1;PMS_P2;Temp;Humidity;BMP_temperature;BMP_pressure;BME280_temperature;BME280_humidity;BME280_pressure;Samples;Min_cycle;Max_cycle;Signal;HPM_P1;HPM_P2
2023/12/24 00:01:44;;;;;;;1.17;1.07;;;9.50;99.90;;;;;;5066868;28;20212;-71
2023/12/24 00:04:13;;;;;;;2.88;0.80;;;9.50;99.90;;;;;;5070326;28;20460;-70
2023/12/24 00:06:40;;;;;;;3.15;1.05;;;9.50;99.90;;;;;;5070974;28;20294;-71
2023/12/24 00:09:07;;;;;;;1.30;0.83;;;9.50;99.90;;;;;;5068643;28;20626;-70
2023/12/24 00:11:34;;;;;;;2.30;1.00;;;9.50;99.90;;;;;;5057867;28;20449;-71
2023/12/24 00:14:00;;;;;;;1.00;1.00;;;9.50;99.90;;;;;;5090047;22;20586;-64
2023/12/24 00:16:27;;;;;;;4.10;1.30;;;9.50;99.90;;;;;;5073049;28;20903;-64
2023/12/24 00:18:54;;;;;;;4.60;1.00;;;9.50;99.90;;;;;;5073402;28;20205;-65
2023/12/24 00:21:22;;;;;;;2.08;1.00;;;9.50;99.90;;;;;;5073785;28;20549;-65
2023/12/24 00:23:49;;;;;;;1.73;1.63;;;9.50;99.90;;;;;;5073371;28;20668;-65
2023/12/24 00:26:16;;;;;;;1.98;1.10;;;9.50;99.90;;;;;;5073616;28;20289;-65
2023/12/24 00:28:44;;;;;;;0.80;0.80;;;9.50;99.90;;;;;;5072446;28;20328;-64
2023/12/24 00:31:10;;;;;;;1.60;1.17;;;9.60;99.90;;;;;;5073181;28;20202;-65
2023/12/24 00:33:37;;;;;;;3.83;1.60;;;9.60;99.90;;;;;;5073016;28;20464;-65
2023/12/24 00:36:04;;;;;;;2.50;1.40;;;9.60;99.90;;;;;;5072976;28;20499;-65
2023/12/24 00:38:32;;;;;;;1.67;0.97;;;9.70;99.90;;;;;;5072824;28;20955;-65
2023/12/24 00:40:59;;;;;;;1.27;1.27;;;9.70;99.90;;;;;;5073181;28;20446;-65
2023/12/24 00:43:26;;;;;;;1.03;1.03;;;9.70;99.90;;;;;;5072871;28;21030;-65
2023/12/24 00:45:53;;;;;;;1.97;1.20;;;9.60;99.90;;;;;;5073134;28;20446;-65
2023/12/24 00:48:20;;;;;;;3.87;0.93;;;9.60;99.90;;;;;;5072485;28;20483;-64
2023/12/24 00:50:46;;;;;;;1.50;1.40;;;9.70;99.90;;;;;;5072765;28;21006;-65
2023/12/24 00:53:13;;;;;;;2.40;1.42;;;9.60;99.90;;;;;;5073291;28;20459;-65
2023/12/24 00:55:41;;;;;;;1.30;1.20;;;9.70;99.90;;;;;;5072590;28;20293;-65
2023/12/24 00:58:08;;;;;;;1.33;1.23;;;9.60;99.90;;;;;;5072824;28;20812;-65
2023/12/24 01:00:35;;;;;;;1.73;1.00;;;9.60;99.90;;;;;;5072301;28;20208;-64
2023/12/24 01:03:02;;;;;;;1.40;1.30;;;9.70;99.90;;;;;;5072404;28;20457;-65
2023/12/24 01:05:29;;;;;;;1.60;1.30;;;9.60;99.90;;;;;;5070907;28;20538;-64
2023/12/24 01:07:56;;;;;;;3.20;1.80;;;9.70;99.90;;;;;;5070546;28;20447;-64
2023/12/24 01:10:23;;;;;;;5.32;1.50;;;9.70;99.90;;;;;;5072348;28;20980;-65
2023/12/24 01:12:51;;;;;;;2.70;1.20;;;9.70;99.90;;;;;;5063142;28;20632;-65
2023/12/24 01:15:18;;;;;;;1.40;1.30;;;9.70;99.90;;;;;;5071313;28;20472;-65
2023/12/24 01:17:44;;;;;;;1.97;1.63;;;9.70;99.90;;;;;;5072383;28;20535;-64
2023/12/24 01:20:15;;;;;;;1.57;1.47;;;9.80;99.90;;;;;;5071563;28;20452;-64
2023/12/24 01:22:42;;;;;;;1.42;1.40;;;9.70;99.90;;;;;;5071717;28;20885;-64
2023/12/24 01:25:10;;;;;;;0.83;0.83;;;9.70;99.90;;;;;;5072669;28;20316;-64
2023/12/24 01:27:36;;;;;;;1.55;1.20;;;9.70;99.90;;;;;;5072329;28;20829;-64
2023/12/24 01:30:06;;;;;;;1.50;1.30;;;9.70;99.90;;;;;;5072027;28;20222;-65
2023/12/24 01:32:33;;;;;;;1.43;1.30;;;9.70;99.90;;;;;;5072130;28;20531;-65
2023/12/24 01:35:00;;;;;;;1.30;1.17;;;9.70;99.90;;;;;;5072450;28;20459;-64
2023/12/24 01:37:27;;;;;;;1.17;1.07;;;9.70;99.90;;;;;;5072070;28;20444;-64
2023/12/24 01:39:53;;;;;;;2.80;1.60;;;9.70;99.90;;;;;;5072380;28;20440;-64
2023/12/24 01:42:20;;;;;;;1.30;1.20;;;9.70;99.90;;;;;;5072144;28;20536;-65
2023/12/24 01:44:47;;;;;;;1.03;0.93;;;9.70;99.90;;;;;;5072062;28;20835;-64
2023/12/24 01:47:16;;;;;;;2.73;1.43;;;9.70;99.90;;;;;;5071680;28;20450;-64
2023/12/24 01:49:45;;;;;;;4.10;1.10;;;9.70;99.90;;;;;;5071979;28;20525;-63
2023/12/24 01:52:12;;;;;;;1.20;1.17;;;9.70;99.90;;;;;;5071084;28;20527;-64
2023/12/24 01:54:39;;;;;;;1.40;1.27;;;9.70;99.90;;;;;;5072484;28;20563;-64
2023/12/24 01:57:06;;;;;;;1.05;1.05;;;9.70;99.90;;;;;;5072387;28;20534;-65
2023/12/24 01:59:35;;;;;;;3.20;1.30;;;9.70;99.90;;;;;;5072183;28;20292;-64
2023/12/24 02:02:03;;;;;;;2.00;1.83;;;9.70;99.90;;;;;;5072327;28;20452;-65
2023/12/24 02:04:32;;;;;;;1.03;1.00;;;9.70;99.90;;;;;;5071151;28;20471;-64
2023/12/24 02:06:59;;;;;;;1.70;1.60;;;9.70;99.90;;;;;;5072419;28;20444;-64
2023/12/24 02:09:26;;;;;;;1.33;1.20;;;9.80;99.90;;;;;;5072029;28;20479;-64
2023/12/24 02:11:53;;;;;;;1.40;1.30;;;9.70;99.90;;;;;;5071994;28;20459;-64
2023/12/24 02:14:20;;;;;;;2.00;1.80;;;9.80;99.90;;;;;;5071707;28;20504;-64
2023/12/24 02:16:48;;;;;;;1.33;1.23;;;9.80;99.90;;;;;;5072568;28;20527;-64
2023/12/24 02:19:19;;;;;;;2.00;1.40;;;9.80;99.90;;;;;;5071781;28;20450;-64
2023/12/24 02:21:47;;;;;;;1.53;1.23;;;9.80;99.90;;;;;;5071713;28;20452;-64
2023/12/24 02:24:16;;;;;;;1.30;1.20;;;9.70;99.90;;;;;;5071796;28;20571;-64
2023/12/24 02:26:49;;;;;;;1.20;1.10;;;9.70;99.90;;;;;;5071890;28;20455;-64
2023/12/24 02:29:25;;;;;;;1.53;1.23;;;9.70;99.90;;;;;;5072006;28;20519;-64
2023/12/24 02:31:59;;;;;;;2.50;1.27;;;9.70;99.90;;;;;;5072217;28;20996;-64
2023/12/24 02:34:27;;;;;;;3.35;1.10;;;9.70;99.90;;;;;;5071950;28;20460;-65
2023/12/24 02:36:56;;;;;;;0.80;0.80;;;9.70;99.90;;;;;;5072019;28;20210;-65
2023/12/24 02:39:23;;;;;;;1.23;0.83;;;9.70;99.90;;;;;;5071658;28;20468;-64
2023/12/24 02:41:50;;;;;;;1.50;1.30;;;9.60;99.90;;;;;;5072103;28;20440;-65
2023/12/24 02:44:17;;;;;;;1.03;1.00;;;9.60;99.90;;;;;;5071885;28;20460;-65
2023/12/24 02:46:44;;;;;;;1.40;1.30;;;9.60;99.90;;;;;;5071857;28;20534;-64
2023/12/24 02:49:10;;;;;;;1.40;1.40;;;9.60;99.90;;;;;;5071554;28;20489;-65
2023/12/24 02:51:37;;;;;;;3.85;1.70;;;9.60;99.90;;;;;;5071818;28;20444;-65
2023/12/24 02:54:05;;;;;;;1.43;1.33;;;9.60;99.90;;;;;;5071633;28;20225;-65
2023/12/24 02:56:36;;;;;;;1.30;1.20;;;9.60;99.90;;;;;;5071578;28;20451;-64
2023/12/24 02:59:03;;;;;;;1.65;1.40;;;9.50;99.90;;;;;;5071129;28;20448;-65
2023/12/24 03:01:30;;;;;;;1.57;1.47;;;9.60;99.90;;;;;;5071744;28;20213;-65
2023/12/24 03:03:57;;;;;;;2.10;1.37;;;9.60;99.90;;;;;;5071585;28;20496;-65
2023/12/24 03:06:23;;;;;;;2.07;1.40;;;9.60;99.90;;;;;;5071529;28;20860;-65
2023/12/24 03:08:50;;;;;;;1.60;1.50;;;9.60;99.90;;;;;;5071262;28;20481;-65
2023/12/24 03:11:18;;;;;;;1.35;1.25;;;9.60;99.90;;;;;;5071571;28;20213;-65
2023/12/24 03:13:45;;;;;;;1.10;1.10;;;9.60;99.90;;;;;;5071262;28;20229;-65
2023/12/24 03:16:12;;;;;;;1.80;1.60;;;9.50;99.90;;;;;;5071549;28;20443;-65
2023/12/24 03:18:39;;;;;;;0.97;0.97;;;9.50;99.90;;;;;;5071323;28;20822;-65
2023/12/24 03:21:06;;;;;;;0.90;0.90;;;9.50;99.90;;;;;;5071423;28;20448;-65
2023/12/24 03:23:32;;;;;;;1.70;1.60;;;9.50;99.90;;;;;;5071552;28;20472;-65
2023/12/24 03:25:59;;;;;;;1.67;1.40;;;9.50;99.90;;;;;;5071148;28;20454;-65
2023/12/24 03:28:28;;;;;;;1.30;1.30;;;9.50;99.90;;;;;;5071333;28;20206;-65
2023/12/24 03:30:54;;;;;;;1.13;1.13;;;9.50;99.90;;;;;;5071716;28;20681;-65
2023/12/24 03:33:22;;;;;;;4.22;1.92;;;9.50;99.90;;;;;;5075162;28;20961;-64
2023/12/24 03:35:48;;;;;;;1.90;1.80;;;9.50;99.90;;;;;;5075524;28;20212;-64
2023/12/24 03:38:17;;;;;;;2.43;1.50;;;9.60;99.90;;;;;;5075006;28;20444;-65
2023/12/24 03:40:43;;;;;;;1.37;1.27;;;9.50;99.90;;;;;;5075510;28;20450;-64
2023/12/24 03:43:10;;;;;;;1.10;1.10;;;9.50;99.90;;;;;;5075167;28;20450;-65
2023/12/24 03:45:38;;;;;;;2.00;1.43;;;9.50;99.90;;;;;;5074971;28;20301;-65
2023/12/24 03:48:07;;;;;;;1.25;1.10;;;9.50;99.90;;;;;;5074587;28;20543;-65
2023/12/24 03:50:33;;;;;;;0.63;0.63;;;9.50;99.90;;;;;;5074839;28;20779;-64
2023/12/24 03:53:00;;;;;;;1.05;1.05;;;9.40;99.90;;;;;;5075072;28;20533;-65
2023/12/24 03:55:27;;;;;;;1.40;1.30;;;9.40;99.90;;;;;;5074922;28;20581;-65
2023/12/24 03:57:54;;;;;;;2.03;1.03;;;9.40;99.90;;;;;;5074786;28;20212;-65
2023/12/24 04:00:21;;;;;;;0.88;0.80;;;9.30;99.90;;;;;;5074629;28;20485;-65
2023/12/24 04:02:49;;;;;;;0.70;0.70;;;9.30;99.90;;;;;;5074986;28;20293;-65
2023/12/24 04:05:16;;;;;;;1.20;0.95;;;9.30;99.90;;;;;;5074882;28;20225;-65
2023/12/24 04:07:43;;;;;;;1.10;1.00;;;9.30;99.90;;;;;;5074563;28;20208;-64
2023/12/24 04:10:10;;;;;;;2.97;0.98;;;9.20;99.90;;;;;;5074525;28;20235;-65
2023/12/24 04:12:37;;;;;;;1.38;1.38;;;9.20;99.90;;;;;;5074587;28;20205;-65
2023/12/24 04:15:06;;;;;;;1.25;0.80;;;9.20;99.90;;;;;;5074157;28;20229;-65
2023/12/24 04:17:34;;;;;;;1.85;1.02;;;9.20;99.90;;;;;;5074440;28;20210;-65
2023/12/24 04:20:03;;;;;;;0.87;0.87;;;9.20;99.90;;;;;;5074414;28;20676;-65
2023/12/24 04:22:30;;;;;;;0.80;0.80;;;9.20;99.90;;;;;;5074348;28;20479;-65
2023/12/24 04:24:58;;;;;;;0.93;0.93;;;9.20;99.90;;;;;;5074247;28;20547;-66
2023/12/24 04:27:25;;;;;;;0.97;0.97;;;9.30;99.90;;;;;;5074204;28;20201;-64
2023/12/24 04:29:52;;;;;;;0.70;0.70;;;9.20;99.90;;;;;;5074284;28;20511;-65
2023/12/24 04:32:20;;;;;;;0.70;0.70;;;9.20;99.90;;;;;;5074217;28;20954;-65
2023/12/24 04:34:47;;;;;;;1.00;0.80;;;9.20;99.90;;;;;;5074057;28;20316;-65
2023/12/24 04:37:15;;;;;;;0.75;0.70;;;9.20;99.90;;;;;;5073093;28;20297;-65
2023/12/24 04:39:42;;;;;;;1.70;1.13;;;9.20;99.90;;;;;;5073955;28;20409;-64
2023/12/24 04:42:08;;;;;;;1.23;0.97;;;9.20;99.90;;;;;;5073756;28;20454;-65
2023/12/24 04:44:37;;;;;;;0.98;0.88;;;9.20;99.90;;;;;;5074236;28;20467;-65
2023/12/24 04:47:04;;;;;;;1.13;0.88;;;9.20;99.90;;;;;;5074203;28;20749;-65
2023/12/24 04:49:31;;;;;;;1.13;1.02;;;9.20;99.90;;;;;;5074004;28;20221;-65
2023/12/24 04:51:59;;;;;;;1.17;1.17;;;9.20;99.90;;;;;;5073892;28;20201;-65
2023/12/24 04:54:27;;;;;;;0.68;0.68;;;9.20;99.90;;;;;;5073816;28;20468;-65
2023/12/24 04:56:54;;;;;;;0.80;0.80;;;9.30;99.90;;;;;;5073652;28;20313;-65
2023/12/24 04:59:21;;;;;;;1.00;0.90;;;9.30;99.90;;;;;;5073802;28;20867;-65
2023/12/24 05:01:49;;;;;;;0.80;0.80;;;9.30;99.90;;;;;;5073848;28;20207;-65
2023/12/24 05:04:16;;;;;;;1.73;1.13;;;9.30;99.90;;;;;;5073833;28;20468;-64
2023/12/24 05:06:43;;;;;;;1.42;1.33;;;9.30;99.90;;;;;;5073638;28;20535;-64
2023/12/24 05:09:09;;;;;;;1.50;1.50;;;9.30;99.90;;;;;;5073387;28;20205;-65
2023/12/24 05:11:39;;;;;;;0.87;0.87;;;9.30;99.90;;;;;;5073551;28;20539;-65
2023/12/24 05:14:06;;;;;;;2.40;1.10;;;9.30;99.90;;;;;;5073510;28;20484;-65
2023/12/24 05:16:33;;;;;;;1.50;1.40;;;9.30;99.90;;;;;;5073371;28;20446;-65
2023/12/24 05:19:00;;;;;;;1.05;0.98;;;9.20;99.90;;;;;;5073344;28;20213;-65
2023/12/24 05:21:29;;;;;;;1.48;1.40;;;9.30;99.90;;;;;;5073494;28;20209;-64
2023/12/24 05:23:56;;;;;;;1.13;1.02;;;9.30;99.90;;;;;;5073154;28;20225;-64
2023/12/24 05:26:24;;;;;;;1.10;1.10;;;9.20;99.90;;;;;;5073426;28;20878;-64
2023/12/24 05:28:52;;;;;;;1.00;1.00;;;9.10;99.90;;;;;;5073143;28;20452;-65
2023/12/24 05:31:19;;;;;;;1.23;1.10;;;9.10;99.90;;;;;;5073328;28;20221;-65
2023/12/24 05:33:46;;;;;;;2.85;1.17;;;9.00;99.90;;;;;;5073054;28;20222;-64
2023/12/24 05:36:13;;;;;;;1.30;1.30;;;9.00;99.90;;;;;;5073250;28;20212;-64
2023/12/24 05:38:40;;;;;;;1.55;1.45;;;8.90;99.90;;;;;;5072693;28;20452;-64
2023/12/24 05:41:09;;;;;;;2.40;2.20;;;8.90;99.90;;;;;;5073112;28;20210;-65
2023/12/24 05:43:37;;;;;;;2.07;1.97;;;8.90;99.90;;;;;;5072819;28;20237;-65
2023/12/24 05:46:11;;;;;;;1.67;1.58;;;8.80;99.90;;;;;;5072993;28;20534;-65
2023/12/24 05:48:38;;;;;;;3.00;2.20;;;8.70;99.90;;;;;;5072724;28;20205;-65
2023/12/24 05:51:05;;;;;;;1.88;1.55;;;8.70;99.90;;;;;;5072561;28;20222;-65
2023/12/24 05:53:32;;;;;;;2.47;1.77;;;8.70;99.90;;;;;;5072455;28;20236;-65
2023/12/24 05:55:58;;;;;;;3.55;3.35;;;8.60;99.90;;;;;;5072682;28;20464;-64
2023/12/24 05:58:25;;;;;;;1.93;1.80;;;8.60;99.90;;;;;;5072629;28;20660;-64
2023/12/24 06:00:52;;;;;;;1.90;1.80;;;8.60;99.90;;;;;;5072528;28;20206;-64
2023/12/24 06:03:20;;;;;;;2.05;1.95;;;8.60;99.90;;;;;;5072488;28;20304;-64
2023/12/24 06:05:47;;;;;;;1.90;1.17;;;8.60;99.90;;;;;;5072402;28;20302;-64
2023/12/24 06:08:15;;;;;;;1.70;1.60;;;8.50;99.90;;;;;;5072384;28;20235;-64
2023/12/24 06:10:42;;;;;;;9.52;5.68;;;8.50;99.90;;;;;;5072287;28;20704;-64
2023/12/24 06:13:08;;;;;;;7.47;6.00;;;8.50;99.90;;;;;;5072578;28;20209;-64
2023/12/24 06:15:35;;;;;;;8.43;6.57;;;8.50;99.90;;;;;;5094887;22;20239;-68
2023/12/24 06:18:02;;;;;;;18.70;13.15;;;8.40;99.90;;;;;;5071946;28;20301;-68
2023/12/24 06:20:32;;;;;;;5.53;4.97;;;8.40;99.90;;;;;;5072456;28;20649;-67
2023/12/24 06:22:58;;;;;;;3.80;3.00;;;8.40;99.90;;;;;;5072192;28;20676;-68
2023/12/24 06:25:26;;;;;;;3.65;3.35;;;8.40;99.90;;;;;;5072171;28;20226;-68
2023/12/24 06:27:53;;;;;;;3.40;3.20;;;8.40;99.90;;;;;;5072080;28;20210;-68
2023/12/24 06:30:21;;;;;;;4.50;4.10;;;8.50;99.90;;;;;;5071757;28;20283;-68
2023/12/24 06:32:48;;;;;;;2.85;2.72;;;8.50;99.90;;;;;;5072085;28;20528;-69
2023/12/24 06:35:15;;;;;;;2.13;1.92;;;8.50;99.90;;;;;;5071909;28;20231;-69
2023/12/24 06:37:43;;;;;;;1.73;1.63;;;8.50;99.90;;;;;;5072005;28;20809;-69
2023/12/24 06:40:11;;;;;;;4.47;2.80;;;8.50;99.90;;;;;;5071727;28;20205;-69
2023/12/24 06:42:37;;;;;;;2.05;1.95;;;8.50;99.90;;;;;;5071969;28;20205;-68
2023/12/24 06:45:05;;;;;;;4.60;4.20;;;8.50;99.90;;;;;;5071690;28;20662;-68
2023/12/24 06:47:32;;;;;;;3.97;3.78;;;8.50;99.90;;;;;;5071703;28;20707;-69
2023/12/24 06:49:59;;;;;;;2.20;1.60;;;8.50;99.90;;;;;;5071459;28;20252;-68
2023/12/24 06:52:27;;;;;;;1.42;1.33;;;8.50;99.90;;;;;;5071950;28;20672;-68
2023/12/24 06:54:55;;;;;;;3.08;2.90;;;8.50;99.90;;;;;;5071692;28;20229;-68
2023/12/24 06:57:22;;;;;;;2.72;2.53;;;8.50;99.90;;;;;;5071790;28;20319;-68
2023/12/24 06:59:49;;;;;;;2.25;2.15;;;8.50;99.90;;;;;;5071457;28;20206;-67
2023/12/24 07:02:16;;;;;;;2.67;1.50;;;8.50;99.90;;;;;;5071685;28;20214;-68
2023/12/24 07:04:43;;;;;;;4.65;3.70;;;8.50;99.90;;;;;;5071217;28;20312;-68
2023/12/24 07:07:09;;;;;;;2.03;1.92;;;8.50;99.90;;;;;;5071612;28;20619;-68
2023/12/24 07:09:36;;;;;;;1.65;1.55;;;8.50;99.90;;;;;;5071437;28;20208;-68
2023/12/24 07:12:05;;;;;;;2.03;1.83;;;8.50;99.90;;;;;;5070421;28;20733;-68
2023/12/24 07:14:32;;;;;;;3.30;3.10;;;8.50;99.90;;;;;;5071103;28;20317;-68
2023/12/24 07:16:59;;;;;;;1.55;1.45;;;8.50;99.90;;;;;;5071499;28;20205;-68
2023/12/24 07:19:25;;;;;;;1.23;1.10;;;8.50;99.90;;;;;;5071392;28;20233;-68
2023/12/24 07:21:52;;;;;;;1.05;1.00;;;8.50;99.90;;;;;;5071412;28;20796;-68
2023/12/24 07:24:19;;;;;;;1.35;1.25;;;8.50;99.90;;;;;;5071350;28;20312;-68
2023/12/24 07:26:46;;;;;;;0.95;0.95;;;8.50;99.90;;;;;;5071557;28;20579;-68
2023/12/24 07:29:14;;;;;;;1.60;0.80;;;8.50;99.90;;;;;;5071170;28;20684;-68
2023/12/24 07:31:41;;;;;;;0.67;0.67;;;8.40;99.90;;;;;;5071583;28;20230;-69
2023/12/24 07:34:08;;;;;;;0.93;0.80;;;8.40;99.90;;;;;;5071345;28;20909;-69
2023/12/24 07:36:35;;;;;;;1.75;0.80;;;8.50;99.90;;;;;;5071266;28;20205;-69
2023/12/24 07:39:03;;;;;;;1.00;0.85;;;8.40;99.90;;;;;;5071015;28;20574;-68
2023/12/24 07:41:31;;;;;;;1.70;0.90;;;8.50;99.90;;;;;;5071491;28;20334;-69
2023/12/24 07:43:58;;;;;;;1.35;1.25;;;8.40;99.90;;;;;;5071419;28;20736;-68
2023/12/24 07:46:26;;;;;;;0.88;0.80;;;8.50;99.90;;;;;;5071183;28;20257;-69
2023/12/24 07:48:53;;;;;;;1.42;1.20;;;8.50;99.90;;;;;;5070896;28;20212;-69
2023/12/24 07:51:19;;;;;;;4.53;3.00;;;8.40;99.90;;;;;;5070998;28;20221;-68
2023/12/24 07:53:46;;;;;;;1.05;0.95;;;8.50;99.90;;;;;;5070944;28;20205;-69
2023/12/24 07:56:13;;;;;;;0.90;0.85;;;8.40;99.90;;;;;;5071327;28;20641;-68
2023/12/24 07:58:40;;;;;;;0.80;0.80;;;8.40;99.90;;;;;;5070974;28;20212;-69
2023/12/24 08:01:07;;;;;;;1.20;1.20;;;8.50;99.90;;;;;;5071072;28;20205;-70
2023/12/24 08:03:35;;;;;;;1.20;1.20;;;8.50;99.90;;;;;;5071109;28;20300;-68
2023/12/24 08:06:02;;;;;;;1.38;1.27;;;8.60;99.90;;;;;;5070937;28;20216;-68
2023/12/24 08:08:29;;;;;;;0.90;0.90;;;8.50;99.90;;;;;;5070730;28;20241;-69
2023/12/24 08:10:55;;;;;;;1.08;1.02;;;8.50;99.90;;;;;;5071110;28;20252;-68
2023/12/24 08:13:22;;;;;;;1.25;0.98;;;8.50;99.90;;;;;;5070972;28;20206;-68
2023/12/24 08:15:49;;;;;;;3.35;3.15;;;8.50;99.90;;;;;;5070741;28;20248;-69
2023/12/24 08:18:16;;;;;;;0.65;0.65;;;8.50;99.90;;;;;;5072693;28;20198;-68
2023/12/24 08:20:44;;;;;;;0.70;0.70;;;8.50;99.90;;;;;;5074368;28;20392;-69
2023/12/24 08:23:11;;;;;;;1.98;1.88;;;8.50;99.90;;;;;;5074714;28;20212;-69
2023/12/24 08:25:38;;;;;;;1.25;0.82;;;8.50;99.90;;;;;;5074528;28;20439;-69
2023/12/24 08:28:06;;;;;;;0.95;0.95;;;8.50;99.90;;;;;;5074274;28;20208;-68
2023/12/24 08:30:33;;;;;;;2.08;1.10;;;8.50;99.90;;;;;;5074554;28;20575;-69
2023/12/24 08:33:00;;;;;;;1.20;1.10;;;8.50;99.90;;;;;;5074372;28;20232;-69
2023/12/24 08:35:26;;;;;;;1.70;1.60;;;8.50;99.90;;;;;;5074020;28;20229;-68
2023/12/24 08:37:55;;;;;;;1.42;1.20;;;8.50;99.90;;;;;;5074373;28;20206;-69
2023/12/24 08:40:22;;;;;;;0.82;0.82;;;8.50;99.90;;;;;;5073852;28;20208;-69
2023/12/24 08:42:49;;;;;;;2.90;2.10;;;8.50;99.90;;;;;;5073599;28;20297;-68
2023/12/24 08:45:16;;;;;;;1.38;1.25;;;8.50;99.90;;;;;;5073478;28;20218;-68
2023/12/24 08:47:42;;;;;;;0.75;0.70;;;8.50;99.90;;;;;;5073667;28;20201;-68
2023/12/24 08:50:09;;;;;;;1.10;1.00;;;8.50;99.90;;;;;;5073983;28;20213;-68
2023/12/24 08:52:36;;;;;;;0.73;0.73;;;8.50;99.90;;;;;;5074150;28;20222;-68
2023/12/24 08:55:06;;;;;;;0.82;0.82;;;8.50;99.90;;;;;;5071747;28;20676;-68
2023/12/24 08:57:32;;;;;;;1.08;1.08;;;8.60;99.90;;;;;;5072982;28;20205;-68
2023/12/24 08:59:59;;;;;;;0.88;0.80;;;8.60;99.90;;;;;;5073374;28;20205;-68
2023/12/24 09:02:25;;;;;;;1.30;1.20;;;8.60;99.90;;;;;;5073451;28;20219;-68
2023/12/24 09:04:52;;;;;;;1.30;1.27;;;8.60;99.90;;;;;;5073233;28;20935;-68
2023/12/24 09:07:19;;;;;;;0.85;0.85;;;8.60;99.90;;;;;;5073543;28;20206;-68
2023/12/24 09:09:48;;;;;;;0.73;0.73;;;8.60;99.90;;;;;;5073235;28;20225;-69
2023/12/24 09:12:16;;;;;;;0.70;0.70;;;8.60;99.90;;;;;;5073400;28;20662;-68
2023/12/24 09:14:43;;;;;;;0.50;0.50;;;8.60;99.90;;;;;;5064005;28;20238;-67
2023/12/24 09:17:10;;;;;;;0.50;0.50;;;8.60;99.90;;;;;;5068063;28;20212;-68
2023/12/24 09:19:36;;;;;;;1.85;0.75;;;8.60;99.90;;;;;;5070109;28;20202;-68
2023/12/24 09:22:03;;;;;;;0.85;0.85;;;8.60;99.90;;;;;;5069667;28;21240;-68
2023/12/24 09:24:30;;;;;;;0.90;0.90;;;8.60;99.90;;;;;;5071574;28;20329;-68
2023/12/24 09:26:57;;;;;;;1.77;0.63;;;8.60;99.90;;;;;;5065019;28;20201;-67
2023/12/24 09:29:25;;;;;;;1.30;1.20;;;8.60;99.90;;;;;;5069862;28;20212;-68
2023/12/24 09:31:52;;;;;;;0.82;0.82;;;8.60;99.90;;;;;;5081083;28;20650;-68
2023/12/24 09:34:19;;;;;;;1.20;1.20;;;8.60;99.90;;;;;;5078475;28;20227;-68
2023/12/24 09:36:46;;;;;;;2.28;2.08;;;8.60;99.90;;;;;;5082157;28;20213;-68
2023/12/24 09:39:13;;;;;;;8.43;5.80;;;8.60;99.90;;;;;;5075527;28;20684;-68
2023/12/24 09:41:39;;;;;;;2.72;2.47;;;8.60;99.90;;;;;;5072595;28;20206;-68
2023/12/24 09:44:08;;;;;;;2.08;1.95;;;8.60;99.90;;;;;;5071777;28;20317;-68
2023/12/24 09:46:36;;;;;;;1.60;1.50;;;8.60;99.90;;;;;;5065400;28;20213;-69
2023/12/24 09:49:03;;;;;;;1.00;1.00;;;8.60;99.90;;;;;;5070685;28;20297;-67
2023/12/24 09:51:30;;;;;;;1.00;1.00;;;8.60;99.90;;;;;;5081841;28;20225;-68
2023/12/24 09:53:58;;;;;;;1.85;0.73;;;8.60;99.90;;;;;;5073078;28;20308;-68
2023/12/24 09:56:24;;;;;;;0.98;0.98;;;8.60;99.90;;;;;;5084861;28;20306;-68
2023/12/24 09:58:51;;;;;;;1.25;1.25;;;8.70;99.90;;;;;;5074858;28;20205;-67
2023/12/24 10:01:18;;;;;;;1.00;1.00;;;8.70;99.90;;;;;;5071392;28;20194;-68
2023/12/24 10:03:46;;;;;;;1.30;1.17;;;8.70;99.90;;;;;;5074244;28;20297;-68
2023/12/24 10:06:14;;;;;;;1.58;1.58;;;8.70;99.90;;;;;;5072136;28;20754;-68
2023/12/24 10:08:41;;;;;;;1.70;1.60;;;8.70;99.90;;;;;;5068060;28;20255;-68
2023/12/24 10:11:16;;;;;;;3.63;2.30;;;8.70;99.90;;;;;;5071695;28;20228;-67
2023/12/24 10:13:43;;;;;;;0.77;0.77;;;8.70;99.90;;;;;;5077475;28;20663;-67
2023/12/24 10:16:11;;;;;;;2.65;2.45;;;8.70;99.90;;;;;;5078402;28;20546;-68
2023/12/24 10:18:37;;;;;;;1.40;1.40;;;8.80;99.90;;;;;;5073160;28;20205;-68
2023/12/24 10:21:09;;;;;;;1.10;1.00;;;8.80;99.90;;;;;;5071998;28;20202;-68
2023/12/24 10:23:36;;;;;;;1.00;1.00;;;8.70;99.90;;;;;;5070920;28;20209;-67
2023/12/24 10:26:05;;;;;;;1.80;1.70;;;8.80;99.90;;;;;;5071959;28;20448;-67
2023/12/24 10:28:32;;;;;;;1.45;1.35;;;8.80;99.90;;;;;;5070984;28;20209;-68
2023/12/24 10:31:07;;;;;;;0.80;0.80;;;8.80;99.90;;;;;;5074054;28;20216;-68
2023/12/24 10:33:34;;;;;;;1.00;1.00;;;8.80;99.90;;;;;;5073760;28;20643;-67
2023/12/24 10:36:01;;;;;;;0.90;0.90;;;8.80;99.90;;;;;;5075211;28;20208;-67
2023/12/24 10:38:29;;;;;;;0.60;0.60;;;8.80;99.90;;;;;;5071614;28;20209;-67
2023/12/24 10:40:56;;;;;;;1.10;0.90;;;8.80;99.90;;;;;;5074557;28;20326;-67
2023/12/24 10:43:23;;;;;;;0.93;0.93;;;8.80;99.90;;;;;;5071658;28;20299;-67
2023/12/24 10:45:50;;;;;;;0.70;0.70;;;8.80;99.90;;;;;;5071159;28;20276;-67
2023/12/24 10:48:17;;;;;;;0.50;0.50;;;8.90;99.90;;;;;;5071808;28;20448;-67
2023/12/24 10:50:44;;;;;;;0.65;0.50;;;8.90;99.90;;;;;;5066469;28;20296;-68
2023/12/24 10:53:11;;;;;;;0.40;0.40;;;8.90;99.90;;;;;;5063446;28;20237;-67
2023/12/24 10:55:41;;;;;;;0.80;0.80;;;8.90;99.90;;;;;;5073325;28;20497;-67
2023/12/24 10:58:17;;;;;;;1.20;0.70;;;8.90;99.90;;;;;;5070776;28;20205;-67
2023/12/24 11:00:44;;;;;;;0.95;0.88;;;9.00;99.90;;;;;;5070993;28;20212;-67
2023/12/24 11:03:11;;;;;;;0.90;0.90;;;9.00;99.90;;;;;;5071133;28;20220;-67
2023/12/24 11:05:48;;;;;;;0.73;0.70;;;9.00;99.90;;;;;;5071143;28;20236;-67
2023/12/24 11:08:31;;;;;;;0.80;0.80;;;9.00;99.90;;;;;;5065025;28;20462;-66
2023/12/24 11:11:03;;;;;;;1.35;1.25;;;9.10;99.90;;;;;;5069486;28;20493;-66
2023/12/24 11:13:48;;;;;;;0.93;0.93;;;9.10;99.90;;;;;;5062526;28;20647;-66
2023/12/24 11:16:41;;;;;;;0.73;0.73;;;9.10;99.90;;;;;;5074646;28;20253;-66
2023/12/24 11:19:08;;;;;;;3.17;2.50;;;9.20;99.90;;;;;;5058870;28;20222;-66
2023/12/24 11:22:06;;;;;;;1.55;1.45;;;9.10;99.90;;;;;;5070428;28;20198;-66
2023/12/24 11:24:34;;;;;;;1.95;1.70;;;9.10;99.90;;;;;;5070022;28;20236;-66
2023/12/24 11:27:02;;;;;;;0.93;0.75;;;9.10;99.90;;;;;;5064224;28;20205;-66
2023/12/24 11:29:48;;;;;;;1.20;1.10;;;9.10;99.90;;;;;;5069047;28;20208;-66
2023/12/24 11:32:37;;;;;;;2.88;2.67;;;9.20;99.90;;;;;;5064675;28;20592;-66
2023/12/24 11:35:06;;;;;;;1.27;1.17;;;9.20;99.90;;;;;;5057903;28;20229;-67
2023/12/24 11:37:35;;;;;;;1.37;1.10;;;9.20;99.90;;;;;;5070885;28;20201;-66
2023/12/24 11:40:03;;;;;;;0.40;0.40;;;9.20;99.90;;;;;;5070760;28;20458;-66
2023/12/24 11:42:46;;;;;;;1.50;1.00;;;9.30;99.90;;;;;;5069713;28;20532;-66
2023/12/24 11:45:23;;;;;;;0.73;0.73;;;9.30;99.90;;;;;;5071120;28;20229;-67
2023/12/24 11:47:51;;;;;;;0.80;0.80;;;9.30;99.90;;;;;;5070316;28;20248;-66
2023/12/24 11:50:18;;;;;;;1.47;1.37;;;9.30;99.90;;;;;;5069264;28;20595;-66
2023/12/24 11:52:46;;;;;;;1.60;1.50;;;9.40;99.90;;;;;;5077944;28;20474;-66
2023/12/24 11:55:16;;;;;;;2.10;2.00;;;9.40;99.90;;;;;;5074459;28;20221;-66
2023/12/24 11:57:44;;;;;;;0.90;0.90;;;9.40;99.90;;;;;;5071211;28;20555;-66
2023/12/24 12:00:16;;;;;;;1.03;1.00;;;9.40;99.90;;;;;;5080635;28;20633;-66
2023/12/24 12:02:43;;;;;;;1.67;0.98;;;9.40;99.90;;;;;;5074271;28;20440;-67
2023/12/24 12:05:10;;;;;;;2.85;2.65;;;9.40;99.90;;;;;;5074457;28;20225;-67
2023/12/24 12:07:37;;;;;;;1.53;1.43;;;9.50;99.90;;;;;;5074030;28;20217;-66
2023/12/24 12:10:05;;;;;;;0.40;0.40;;;9.50;99.90;;;;;;5073822;28;20530;-66
2023/12/24 12:12:32;;;;;;;0.63;0.63;;;9.50;99.90;;;;;;5073697;28;20649;-66
2023/12/24 12:15:00;;;;;;;0.67;0.67;;;9.50;99.90;;;;;;5073725;28;20563;-66
2023/12/24 12:17:27;;;;;;;0.67;0.67;;;9.50;99.90;;;;;;5073684;28;20450;-66
2023/12/24 12:19:54;;;;;;;0.77;0.77;;;9.50;99.90;;;;;;5083450;28;20461;-66
2023/12/24 12:22:21;;;;;;;0.83;0.83;;;9.50;99.90;;;;;;5074009;28;20451;-66
2023/12/24 12:24:47;;;;;;;3.15;2.45;;;9.50;99.90;;;;;;5073891;28;20478;-66
2023/12/24 12:27:14;;;;;;;2.33;1.85;;;9.50;99.90;;;;;;5074321;28;20245;-66
2023/12/24 12:29:41;;;;;;;0.70;0.70;;;9.50;99.90;;;;;;5073916;28;20205;-67
2023/12/24 12:32:09;;;;;;;0.60;0.60;;;9.50;99.90;;;;;;5073850;28;20587;-65
2023/12/24 12:34:36;;;;;;;0.50;0.50;;;9.50;99.90;;;;;;5078627;28;20542;-66
2023/12/24 12:37:04;;;;;;;0.87;0.67;;;9.50;99.90;;;;;;5076274;28;20996;-65
2023/12/24 12:39:30;;;;;;;0.70;0.70;;;9.50;99.90;;;;;;5072196;28;20456;-66
2023/12/24 12:41:57;;;;;;;3.00;1.43;;;9.50;99.90;;;;;;5075811;28;20539;-66
2023/12/24 12:44:24;;;;;;;11.87;6.40;;;9.50;99.90;;;;;;5073172;28;20475;-65
2023/12/24 12:46:51;;;;;;;1.13;0.87;;;9.50;99.90;;;;;;5080733;28;20897;-66
2023/12/24 12:49:19;;;;;;;1.07;1.07;;;9.50;99.90;;;;;;5073462;28;20458;-66
2023/12/24 12:51:47;;;;;;;1.63;1.23;;;9.50;99.90;;;;;;5071195;28;20479;-66
2023/12/24 12:54:14;;;;;;;1.90;1.67;;;9.50;99.90;;;;;;5066813;28;20476;-65
2023/12/24 12:56:45;;;;;;;2.10;0.60;;;9.50;99.90;;;;;;5067453;28;20451;-66
2023/12/24 12:59:21;;;;;;;3.50;3.10;;;9.50;99.90;;;;;;5074766;28;20439;-66
2023/12/24 13:01:48;;;;;;;1.70;1.37;;;9.50;99.90;;;;;;5070764;28;20972;-66